createdAt,value
2022-10-08T00:00:07.507Z,0.60
2022-10-08T00:02:33.832Z,0.68
2022-10-08T00:05:00.228Z,0.75
2022-10-08T00:07:26.590Z,0.68
2022-10-08T00:09:52.975Z,0.80
2022-10-08T00:12:19.247Z,0.75
2022-10-08T00:14:45.620Z,0.65
2022-10-08T00:17:11.884Z,0.90
2022-10-08T00:19:38.264Z,0.60
2022-10-08T00:22:04.607Z,0.90
2022-10-08T00:24:31.799Z,0.70
2022-10-08T00:27:00.297Z,1.27
2022-10-08T00:29:26.584Z,0.90
2022-10-08T00:31:53.100Z,0.80
2022-10-08T00:34:22.208Z,0.77
2022-10-08T00:36:51.067Z,0.80
2022-10-08T00:39:18.530Z,0.80
2022-10-08T00:41:46.534Z,0.70
2022-10-08T00:44:31.494Z,0.70
2022-10-08T00:46:57.785Z,0.50
2022-10-08T00:49:25.574Z,1.65
2022-10-08T00:51:53.404Z,0.80
2022-10-08T00:54:20.822Z,1.02
2022-10-08T00:56:54.262Z,0.73
2022-10-08T00:59:20.858Z,0.70
2022-10-08T01:01:47.203Z,0.68
2022-10-08T01:04:14.753Z,0.98
2022-10-08T01:06:48.638Z,1.00
2022-10-08T01:09:19.269Z,0.70
2022-10-08T01:11:58.173Z,1.02
2022-10-08T01:14:40.419Z,0.93
2022-10-08T01:17:15.475Z,1.42
2022-10-08T01:19:48.428Z,0.85
2022-10-08T01:22:18.142Z,0.77
2022-10-08T01:25:09.970Z,0.82
2022-10-08T01:27:42.184Z,0.82
2022-10-08T01:30:11.299Z,0.70
2022-10-08T01:32:41.399Z,0.90
2022-10-08T01:35:11.245Z,1.10
2022-10-08T01:37:39.083Z,1.35
2022-10-08T01:40:09.490Z,0.70
2022-10-08T01:42:36.872Z,1.10
2022-10-08T01:45:05.192Z,0.93
2022-10-08T01:47:31.736Z,1.42
2022-10-08T01:50:05.479Z,0.90
2022-10-08T01:52:33.506Z,0.50
2022-10-08T01:55:01.859Z,1.42
2022-10-08T01:57:29.000Z,0.80
2022-10-08T01:59:59.117Z,0.70
2022-10-08T02:02:26.333Z,0.63
2022-10-08T02:04:54.020Z,1.98
2022-10-08T02:07:22.191Z,1.02
2022-10-08T02:09:53.301Z,1.10
2022-10-08T02:12:20.497Z,1.20
2022-10-08T02:14:48.349Z,0.60
2022-10-08T02:17:24.485Z,0.65
2022-10-08T02:20:17.063Z,1.75
2022-10-08T02:22:48.628Z,1.20
2022-10-08T02:25:35.434Z,0.85
2022-10-08T02:28:01.781Z,0.90
2022-10-08T02:30:31.875Z,1.23
2022-10-08T02:33:00.379Z,0.60
2022-10-08T02:35:32.085Z,1.65
2022-10-08T02:38:01.136Z,0.80
2022-10-08T02:40:29.046Z,1.17
2022-10-08T02:42:59.931Z,0.70
2022-10-08T02:45:35.948Z,1.30
2022-10-08T02:48:23.881Z,1.02
2022-10-08T02:50:51.397Z,0.60
2022-10-08T02:53:18.168Z,0.65
2022-10-08T02:55:56.811Z,0.82
2022-10-08T02:58:23.174Z,0.90
2022-10-08T03:01:08.569Z,0.75
2022-10-08T03:03:36.710Z,0.82
2022-10-08T03:06:04.674Z,0.95
2022-10-08T03:08:31.709Z,1.08
2022-10-08T03:10:58.951Z,0.70
2022-10-08T03:13:26.885Z,1.05
2022-10-08T03:15:53.810Z,0.77
2022-10-08T03:18:20.298Z,0.52
2022-10-08T03:20:49.327Z,0.80
2022-10-08T03:23:16.704Z,0.93
2022-10-08T03:25:42.999Z,0.98
2022-10-08T03:28:09.387Z,0.98
2022-10-08T03:30:35.864Z,0.90
2022-10-08T03:33:02.184Z,0.90
2022-10-08T03:35:28.501Z,0.88
2022-10-08T03:37:54.956Z,0.57
2022-10-08T03:40:21.690Z,0.52
2022-10-08T03:42:48.361Z,0.75
2022-10-08T03:45:14.924Z,0.80
2022-10-08T03:47:41.253Z,0.52
2022-10-08T03:50:07.834Z,0.90
2022-10-08T03:52:34.140Z,1.30
2022-10-08T03:55:00.427Z,0.47
2022-10-08T03:57:26.705Z,0.90
2022-10-08T03:59:53.744Z,1.20
2022-10-08T04:02:20.096Z,0.63
2022-10-08T04:04:46.404Z,0.70
2022-10-08T04:07:12.696Z,0.68
2022-10-08T04:09:38.979Z,0.80
2022-10-08T04:12:05.301Z,0.80
2022-10-08T04:14:31.590Z,1.00
2022-10-08T04:16:57.890Z,0.73
2022-10-08T04:19:24.180Z,0.93
2022-10-08T04:21:50.570Z,0.60
2022-10-08T04:24:16.864Z,0.63
2022-10-08T04:26:43.192Z,0.40
2022-10-08T04:29:12.412Z,0.80
2022-10-08T04:31:39.214Z,0.85
2022-10-08T04:34:05.495Z,0.85
2022-10-08T04:36:32.200Z,0.75
2022-10-08T04:38:58.480Z,0.88
2022-10-08T04:41:26.062Z,0.68
2022-10-08T04:43:53.333Z,0.77
2022-10-08T04:46:20.775Z,1.00
2022-10-08T04:48:48.570Z,0.85
2022-10-08T04:51:15.444Z,0.70
2022-10-08T04:53:41.800Z,0.82
2022-10-08T04:56:09.675Z,1.20
2022-10-08T04:58:36.092Z,0.50
2022-10-08T05:01:03.340Z,0.60
2022-10-08T05:03:29.689Z,0.80
2022-10-08T05:05:56.081Z,0.68
2022-10-08T05:08:22.571Z,0.52
2022-10-08T05:10:49.433Z,0.65
2022-10-08T05:13:15.761Z,1.15
2022-10-08T05:15:42.104Z,0.70
2022-10-08T05:18:08.407Z,0.43
2022-10-08T05:20:35.816Z,0.80
2022-10-08T05:23:02.152Z,0.60
2022-10-08T05:25:31.273Z,0.60
2022-10-08T05:27:58.073Z,0.70
2022-10-08T05:30:24.457Z,0.65
2022-10-08T05:32:50.809Z,0.82
2022-10-08T05:35:17.111Z,0.63
2022-10-08T05:37:43.396Z,0.73
2022-10-08T05:40:09.978Z,0.95
2022-10-08T05:42:36.268Z,0.40
2022-10-08T05:45:02.634Z,0.88
2022-10-08T05:47:28.947Z,1.00
2022-10-08T05:49:55.366Z,0.50
2022-10-08T05:52:21.729Z,0.50
2022-10-08T05:54:48.008Z,0.60
2022-10-08T05:57:14.315Z,1.00
2022-10-08T05:59:40.601Z,0.55
2022-10-08T06:02:06.996Z,0.60
2022-10-08T06:04:33.425Z,1.13
2022-10-08T06:06:59.818Z,0.60
2022-10-08T06:09:26.115Z,0.60
2022-10-08T06:11:52.478Z,0.45
2022-10-08T06:14:20.266Z,0.73
2022-10-08T06:16:46.577Z,0.50
2022-10-08T06:19:13.112Z,0.60
2022-10-08T06:21:39.416Z,0.60
2022-10-08T06:24:06.841Z,0.88
2022-10-08T06:26:36.230Z,0.60
2022-10-08T06:29:05.373Z,0.80
2022-10-08T06:31:31.773Z,0.60
2022-10-08T06:33:58.584Z,0.30
2022-10-08T06:36:26.101Z,0.60
2022-10-08T06:38:53.459Z,0.57
2022-10-08T06:41:20.369Z,0.60
2022-10-08T06:43:46.773Z,0.98
2022-10-08T06:46:13.211Z,0.70
2022-10-08T06:48:39.768Z,0.85
2022-10-08T06:51:07.588Z,0.80
2022-10-08T06:53:34.127Z,0.65
2022-10-08T06:56:01.411Z,0.60
2022-10-08T06:58:28.363Z,1.00
2022-10-08T07:01:03.929Z,1.38
2022-10-08T07:13:16.894Z,1.17
2022-10-08T07:15:43.359Z,0.70
2022-10-08T07:18:12.062Z,0.73
2022-10-08T07:20:39.338Z,0.90
2022-10-08T07:23:05.861Z,0.80
2022-10-08T07:25:32.146Z,0.70
2022-10-08T07:27:58.432Z,1.10
2022-10-08T07:30:24.722Z,0.60
2022-10-08T07:32:53.857Z,0.45
2022-10-08T07:35:20.152Z,0.80
2022-10-08T07:37:46.428Z,1.02
2022-10-08T07:40:12.765Z,0.60
2022-10-08T07:42:39.187Z,0.90
2022-10-08T07:45:05.648Z,0.57
2022-10-08T07:47:31.927Z,0.73
2022-10-08T07:49:58.223Z,0.60
2022-10-08T07:52:24.523Z,0.73
2022-10-08T07:54:50.812Z,0.88
2022-10-08T07:57:17.111Z,0.90
2022-10-08T07:59:43.420Z,0.52
2022-10-08T08:02:09.829Z,0.52
2022-10-08T08:04:36.255Z,0.57
2022-10-08T08:07:02.574Z,0.52
2022-10-08T08:09:29.953Z,0.70
2022-10-08T08:11:56.254Z,0.73
2022-10-08T08:14:22.649Z,0.82
2022-10-08T08:16:49.291Z,0.73
2022-10-08T08:19:15.794Z,1.02
2022-10-08T08:21:42.097Z,0.50
2022-10-08T08:24:10.602Z,1.20
2022-10-08T08:26:38.787Z,0.70
2022-10-08T08:29:07.100Z,0.73
2022-10-08T08:31:34.694Z,0.50
2022-10-08T08:34:03.397Z,0.82
2022-10-08T08:36:31.600Z,1.30
2022-10-08T08:38:58.306Z,0.95
2022-10-08T08:41:24.708Z,0.88
2022-10-08T08:43:57.002Z,0.77
2022-10-08T08:46:23.842Z,0.70
2022-10-08T08:48:51.135Z,0.80
2022-10-08T08:51:17.449Z,0.88
2022-10-08T08:53:43.885Z,1.10
2022-10-08T08:56:12.901Z,0.95
2022-10-08T08:58:39.237Z,1.05
2022-10-08T09:01:05.634Z,1.10
2022-10-08T09:03:41.428Z,0.70
2022-10-08T09:08:40.445Z,0.82
2022-10-08T09:11:07.079Z,1.52
2022-10-08T09:13:39.730Z,0.60
2022-10-08T09:16:06.137Z,0.70
2022-10-08T09:18:33.031Z,1.00
2022-10-08T09:20:59.316Z,0.50
2022-10-08T09:23:26.261Z,1.00
2022-10-08T09:25:58.527Z,2.95
2022-10-08T09:28:39.939Z,0.75
2022-10-08T09:31:25.509Z,0.93
2022-10-08T09:33:57.156Z,0.70
2022-10-08T09:36:42.330Z,0.95
2022-10-08T09:39:17.485Z,0.98
2022-10-08T09:41:47.199Z,1.10
2022-10-08T09:44:21.305Z,0.75
2022-10-08T09:46:47.940Z,1.33
2022-10-08T09:49:31.319Z,0.47
2022-10-08T09:51:59.636Z,0.68
2022-10-08T09:54:27.784Z,0.75
2022-10-08T09:56:57.769Z,0.55
2022-10-08T09:59:25.920Z,1.25
2022-10-08T10:01:53.189Z,1.00
2022-10-08T10:04:24.217Z,0.93
2022-10-08T10:06:52.824Z,0.95
2022-10-08T10:09:25.351Z,0.95
2022-10-08T10:12:13.564Z,0.70
2022-10-08T10:14:39.832Z,0.40
2022-10-08T10:17:10.428Z,0.60
2022-10-08T10:19:42.728Z,0.90
2022-10-08T10:22:14.357Z,0.82
2022-10-08T10:24:48.264Z,0.63
2022-10-08T10:27:27.205Z,0.95
2022-10-08T10:29:57.828Z,0.47
2022-10-08T10:32:31.098Z,0.57
2022-10-08T10:35:12.931Z,0.93
2022-10-08T10:37:44.790Z,1.00
2022-10-08T10:40:14.226Z,0.63
2022-10-08T10:42:46.399Z,0.70
2022-10-08T10:45:23.257Z,0.73
2022-10-08T10:47:53.233Z,0.82
2022-10-08T10:50:39.767Z,0.60
2022-10-08T10:53:15.175Z,0.90
2022-10-08T10:56:03.826Z,0.82
2022-10-08T10:58:30.203Z,0.70
2022-10-08T11:01:05.233Z,1.45
2022-10-08T11:03:46.707Z,0.75
2022-10-08T11:06:18.886Z,0.80
2022-10-08T11:09:00.494Z,0.60
2022-10-08T11:11:53.051Z,1.08
2022-10-08T11:14:40.599Z,1.20
2022-10-08T11:17:12.876Z,0.70
2022-10-08T11:19:46.862Z,0.88
2022-10-08T11:22:24.723Z,0.50
2022-10-08T11:25:04.972Z,0.80
2022-10-08T11:28:07.695Z,0.65
2022-10-08T11:30:46.967Z,0.68
2022-10-08T11:33:14.343Z,0.75
2022-10-08T11:36:06.550Z,0.80
2022-10-08T11:38:35.899Z,0.70
2022-10-08T11:41:04.926Z,0.60
2022-10-08T11:43:36.703Z,1.02
2022-10-08T11:46:12.915Z,1.25
2022-10-08T11:48:39.333Z,0.88
2022-10-08T11:51:35.192Z,0.70
2022-10-08T11:54:01.495Z,0.60
2022-10-08T11:56:27.969Z,0.77
2022-10-08T11:58:55.283Z,1.08
2022-10-08T12:01:22.233Z,1.33
2022-10-08T12:04:16.144Z,1.17
2022-10-08T12:06:43.118Z,0.95
2022-10-08T12:09:21.289Z,0.60
2022-10-08T12:11:48.175Z,0.68
2022-10-08T12:14:14.562Z,1.35
2022-10-08T12:16:56.008Z,0.70
2022-10-08T12:19:34.796Z,0.77
2022-10-08T12:22:05.204Z,1.05
2022-10-08T12:24:37.641Z,0.60
2022-10-08T12:27:22.511Z,0.95
2022-10-08T12:29:59.602Z,1.13
2022-10-08T12:32:46.147Z,1.00
2022-10-08T12:35:21.845Z,0.98
2022-10-08T12:37:58.624Z,0.75
2022-10-08T12:40:35.089Z,2.05
2022-10-08T12:43:07.295Z,0.98
2022-10-08T12:45:39.351Z,0.90
2022-10-08T12:48:14.462Z,0.82
2022-10-08T12:50:51.780Z,1.13
2022-10-08T12:53:18.571Z,0.47
2022-10-08T12:55:56.892Z,1.08
2022-10-08T12:58:28.404Z,0.70
2022-10-08T13:00:57.104Z,1.08
2022-10-08T13:03:23.588Z,1.15
2022-10-08T13:05:49.900Z,1.23
2022-10-08T13:08:25.495Z,0.88
2022-10-08T13:10:51.795Z,0.82
2022-10-08T13:13:33.346Z,0.98
2022-10-08T13:16:04.077Z,0.60
2022-10-08T13:18:30.772Z,1.60
2022-10-08T13:20:58.396Z,0.70
2022-10-08T13:23:43.190Z,0.77
2022-10-08T13:26:28.212Z,0.82
2022-10-08T13:29:13.137Z,1.08
2022-10-08T13:31:39.601Z,1.25
2022-10-08T13:34:05.949Z,0.82
2022-10-08T13:36:37.137Z,0.65
2022-10-08T13:39:04.371Z,1.10
2022-10-08T13:41:30.667Z,0.80
2022-10-08T13:43:56.982Z,0.88
2022-10-08T13:46:23.369Z,1.30
2022-10-08T13:48:49.708Z,1.42
2022-10-08T13:51:16.212Z,0.90
2022-10-08T13:53:45.488Z,0.90
2022-10-08T13:56:11.801Z,1.00
2022-10-08T13:58:38.227Z,0.70
2022-10-08T14:01:04.546Z,0.82
2022-10-08T14:03:30.921Z,1.20
2022-10-08T14:05:57.762Z,0.68
2022-10-08T14:08:25.409Z,0.80
2022-10-08T14:10:57.516Z,0.65
2022-10-08T14:13:24.288Z,0.80
2022-10-08T14:15:50.674Z,1.10
2022-10-08T14:18:17.084Z,1.42
2022-10-08T14:20:44.591Z,1.88
2022-10-08T14:23:12.416Z,0.88
2022-10-08T14:25:38.701Z,0.77
2022-10-08T14:28:05.046Z,0.80
2022-10-08T14:30:31.458Z,0.70
2022-10-08T14:32:57.767Z,0.80
2022-10-08T14:35:24.133Z,0.73
2022-10-08T14:37:50.664Z,0.65
2022-10-08T14:40:19.237Z,1.10
2022-10-08T14:42:46.073Z,0.70
2022-10-08T14:45:12.754Z,0.98
2022-10-08T14:47:39.364Z,0.60
2022-10-08T14:50:05.919Z,0.70
2022-10-08T14:52:32.985Z,0.70
2022-10-08T14:54:59.383Z,0.68
2022-10-08T14:57:25.748Z,0.70
2022-10-08T14:59:52.161Z,1.10
2022-10-08T15:02:18.564Z,0.70
2022-10-08T15:04:44.961Z,0.63
2022-10-08T15:07:11.235Z,1.00
2022-10-08T15:09:40.392Z,0.93
2022-10-08T15:12:07.460Z,0.90
2022-10-08T15:14:37.917Z,0.98
2022-10-08T15:17:04.864Z,0.80
2022-10-08T15:19:31.459Z,0.93
2022-10-08T15:21:57.785Z,1.20
2022-10-08T15:24:24.099Z,1.05
2022-10-08T15:26:50.376Z,1.10
2022-10-08T15:29:16.796Z,0.82
2022-10-08T15:31:43.146Z,0.88
2022-10-08T15:34:16.185Z,1.33
2022-10-08T15:36:43.002Z,0.63
2022-10-08T15:39:16.853Z,0.95
2022-10-08T15:41:44.731Z,1.00
2022-10-08T15:44:11.011Z,0.65
2022-10-08T15:46:37.748Z,0.77
2022-10-08T15:49:04.473Z,0.82
2022-10-08T15:51:31.464Z,1.00
2022-10-08T15:53:58.358Z,0.85
2022-10-08T15:56:24.868Z,0.57
2022-10-08T15:58:51.737Z,0.77
2022-10-08T16:01:19.544Z,0.85
2022-10-08T16:03:47.054Z,0.43
2022-10-08T16:06:14.611Z,1.10
2022-10-08T16:08:41.348Z,0.80
2022-10-08T16:11:16.630Z,1.30
2022-10-08T16:13:46.088Z,0.65
2022-10-08T16:16:15.271Z,1.02
2022-10-08T16:18:42.296Z,0.80
2022-10-08T16:21:08.639Z,1.08
2022-10-08T16:23:36.017Z,0.60
2022-10-08T16:26:02.929Z,0.50
2022-10-08T16:28:33.214Z,0.75
2022-10-08T16:30:59.978Z,0.40
2022-10-08T16:33:26.615Z,0.80
2022-10-08T16:35:53.522Z,0.73
2022-10-08T16:38:20.033Z,0.80
2022-10-08T16:40:46.409Z,0.22
2022-10-08T16:43:13.078Z,1.45
2022-10-08T16:45:39.939Z,0.75
2022-10-08T16:48:08.236Z,1.10
2022-10-08T16:50:41.328Z,0.50
2022-10-08T16:53:08.875Z,1.23
2022-10-08T16:55:35.793Z,1.00
2022-10-08T16:58:02.198Z,0.40
2022-10-08T17:00:28.747Z,1.00
2022-10-08T17:02:55.211Z,0.60
2022-10-08T17:05:21.598Z,1.10
2022-10-08T17:07:47.909Z,0.93
2022-10-08T17:10:14.244Z,0.82
2022-10-08T17:12:41.100Z,0.68
2022-10-08T17:15:07.752Z,1.25
2022-10-08T17:17:34.179Z,0.60
2022-10-08T17:20:00.479Z,1.50
2022-10-08T17:22:26.804Z,0.77
2022-10-08T17:24:53.141Z,1.00
2022-10-08T17:27:19.424Z,1.10
2022-10-08T17:29:45.719Z,1.00
2022-10-08T17:32:12.073Z,0.73
2022-10-08T17:34:38.356Z,0.60
2022-10-08T17:37:04.773Z,1.10
2022-10-08T17:39:32.565Z,1.30
2022-10-08T17:42:01.671Z,0.90
2022-10-08T17:44:29.993Z,1.20
2022-10-08T17:46:56.974Z,2.05
2022-10-08T17:49:23.285Z,0.98
2022-10-08T17:51:50.965Z,0.50
2022-10-08T17:54:19.080Z,1.52
2022-10-08T17:56:45.813Z,1.73
2022-10-08T17:59:13.797Z,1.30
2022-10-08T18:01:44.067Z,1.75
2022-10-08T18:04:12.953Z,1.08
2022-10-08T18:06:43.015Z,1.20
2022-10-08T18:09:19.445Z,1.30
2022-10-08T18:11:47.736Z,2.10
2022-10-08T18:14:14.066Z,1.40
2022-10-08T18:16:44.279Z,1.83
2022-10-08T18:19:13.360Z,1.40
2022-10-08T18:21:39.688Z,2.25
2022-10-08T18:24:06.127Z,2.92
2022-10-08T18:26:34.698Z,3.00
2022-10-08T18:29:02.290Z,2.60
2022-10-08T18:31:30.266Z,0.80
2022-10-08T18:33:57.992Z,1.55
2022-10-08T18:36:25.844Z,2.58
2022-10-08T18:38:55.987Z,2.45
2022-10-08T18:41:26.384Z,1.65
2022-10-08T18:43:52.731Z,2.35
2022-10-08T18:46:19.910Z,1.35
2022-10-08T18:48:46.577Z,3.08
2022-10-08T18:51:14.088Z,3.95
2022-10-08T18:53:41.488Z,3.05
2022-10-08T18:56:09.613Z,3.40
2022-10-08T18:58:36.729Z,3.45
2022-10-08T19:01:03.195Z,3.63
2022-10-08T19:03:29.556Z,3.58
2022-10-08T19:05:55.863Z,3.53
2022-10-08T19:08:22.242Z,1.30
2022-10-08T19:10:48.528Z,2.63
2022-10-08T19:13:14.968Z,2.88
2022-10-08T19:15:41.543Z,3.08
2022-10-08T19:18:08.391Z,3.15
2022-10-08T19:20:35.407Z,3.30
2022-10-08T19:23:02.422Z,3.63
2022-10-08T19:25:29.991Z,2.95
2022-10-08T19:27:56.451Z,1.67
2022-10-08T19:30:26.546Z,3.30
2022-10-08T19:32:55.094Z,2.47
2022-10-08T19:35:21.440Z,3.00
2022-10-08T19:37:47.754Z,1.77
2022-10-08T19:40:14.049Z,2.58
2022-10-08T19:42:40.378Z,2.83
2022-10-08T19:45:07.285Z,2.60
2022-10-08T19:47:35.763Z,2.58
2022-10-08T19:50:02.626Z,2.65
2022-10-08T19:52:28.946Z,2.47
2022-10-08T19:54:55.238Z,2.33
2022-10-08T19:57:21.548Z,2.60
2022-10-08T19:59:47.854Z,2.03
2022-10-08T20:02:14.278Z,2.55
2022-10-08T20:04:42.250Z,2.22
2022-10-08T20:07:08.544Z,2.35
2022-10-08T20:09:36.270Z,2.25
2022-10-08T20:12:03.260Z,2.55
2022-10-08T20:14:29.673Z,2.40
2022-10-08T20:16:56.023Z,2.42
2022-10-08T20:19:22.565Z,2.40
2022-10-08T20:21:49.906Z,2.30
2022-10-08T20:24:17.223Z,2.90
2022-10-08T20:26:44.345Z,2.50
2022-10-08T20:29:13.094Z,2.92
2022-10-08T20:31:41.821Z,2.10
2022-10-08T20:34:18.563Z,2.45
2022-10-08T20:36:45.744Z,2.38
2022-10-08T20:39:12.975Z,1.75
2022-10-08T20:41:39.553Z,1.92
2022-10-08T20:44:06.159Z,2.10
2022-10-08T20:46:33.345Z,2.45
2022-10-08T20:48:59.777Z,2.38
2022-10-08T20:51:26.994Z,2.28
2022-10-08T20:53:54.528Z,2.00
2022-10-08T20:56:22.033Z,2.08
2022-10-08T20:58:48.595Z,2.17
2022-10-08T21:01:17.809Z,1.58
2022-10-08T21:03:45.128Z,2.20
2022-10-08T21:06:16.070Z,2.17
2022-10-08T21:08:43.439Z,1.65
2022-10-08T21:11:11.503Z,2.00
2022-10-08T21:13:37.937Z,2.03
2022-10-08T21:16:09.212Z,2.17
2022-10-08T21:18:36.634Z,2.30
2022-10-08T21:21:12.484Z,2.03
2022-10-08T21:23:38.926Z,1.92
2022-10-08T21:26:09.912Z,2.25
2022-10-08T21:28:36.407Z,2.08
2022-10-08T21:31:04.528Z,2.10
2022-10-08T21:33:31.097Z,2.10
2022-10-08T21:35:57.845Z,2.05
2022-10-08T21:38:24.622Z,2.67
2022-10-08T21:40:55.439Z,1.95
2022-10-08T21:43:21.733Z,1.67
2022-10-08T21:45:55.617Z,1.90
2022-10-08T21:48:22.211Z,2.22
2022-10-08T21:51:14.668Z,1.90
2022-10-08T21:53:44.217Z,1.55
2022-10-08T21:56:11.528Z,1.60
2022-10-08T21:58:39.580Z,1.98
2022-10-08T22:01:06.760Z,1.58
2022-10-08T22:03:33.515Z,1.75
2022-10-08T22:06:01.476Z,1.25
2022-10-08T22:08:29.324Z,1.77
2022-10-08T22:10:56.128Z,1.25
2022-10-08T22:13:22.623Z,1.90
2022-10-08T22:15:55.292Z,1.55
2022-10-08T22:18:22.555Z,1.73
2022-10-08T22:20:48.972Z,1.52
2022-10-08T22:23:15.677Z,1.52
2022-10-08T22:25:42.465Z,1.67
2022-10-08T22:28:08.916Z,2.05
2022-10-08T22:30:36.031Z,1.88
2022-10-08T22:33:03.135Z,1.83
2022-10-08T22:35:31.312Z,1.77
2022-10-08T22:37:57.607Z,1.60
2022-10-08T22:40:23.921Z,1.52
2022-10-08T22:42:50.597Z,2.53
2022-10-08T22:45:17.180Z,2.20
2022-10-08T22:47:45.315Z,2.30
2022-10-08T22:50:11.790Z,1.83
2022-10-08T22:52:38.144Z,2.25
2022-10-08T22:55:04.704Z,2.08
2022-10-08T22:57:30.987Z,2.30
2022-10-08T22:59:57.272Z,1.75
2022-10-08T23:02:23.654Z,1.90
2022-10-08T23:04:50.055Z,1.77
2022-10-08T23:07:16.346Z,2.20
2022-10-08T23:09:42.659Z,1.92
2022-10-08T23:12:08.958Z,2.28
2022-10-08T23:14:35.267Z,2.30
2022-10-08T23:17:01.698Z,2.78
2022-10-08T23:19:28.025Z,2.20
2022-10-08T23:21:54.314Z,2.15
2022-10-08T23:24:20.599Z,2.10
2022-10-08T23:26:47.081Z,2.55
2022-10-08T23:29:13.472Z,2.75
2022-10-08T23:31:39.845Z,2.13
2022-10-08T23:34:06.948Z,2.42
2022-10-08T23:36:34.873Z,2.33
2022-10-08T23:39:01.517Z,2.38
2022-10-08T23:41:27.856Z,2.70
2022-10-08T23:43:54.708Z,2.15
2022-10-08T23:46:22.366Z,2.00
2022-10-08T23:48:49.143Z,2.72
2022-10-08T23:51:15.934Z,2.58
2022-10-08T23:53:42.733Z,2.85
2022-10-08T23:56:09.558Z,2.35
2022-10-08T23:58:36.024Z,2.03
